createdAt,value
2022-11-20T00:02:38.704Z,10.98
2022-11-20T00:07:43.548Z,12.63
2022-11-20T00:12:47.073Z,10.70
2022-11-20T00:17:50.500Z,11.85
2022-11-20T00:22:55.383Z,11.80
2022-11-20T00:27:58.849Z,11.25
2022-11-20T00:33:02.329Z,11.82
2022-11-20T00:38:07.153Z,10.93
2022-11-20T00:43:10.600Z,11.75
2022-11-20T00:48:14.346Z,10.80
2022-11-20T00:53:19.134Z,10.88
2022-11-20T00:58:23.178Z,11.13
2022-11-20T01:03:27.257Z,11.25
2022-11-20T01:08:37.386Z,11.52
2022-11-20T01:13:42.232Z,11.55
2022-11-20T01:18:47.691Z,11.40
2022-11-20T01:23:53.324Z,11.43
2022-11-20T01:28:57.433Z,13.02
2022-11-20T01:34:02.525Z,12.15
2022-11-20T01:39:09.413Z,11.77
2022-11-20T01:44:16.019Z,12.73
2022-11-20T01:49:24.159Z,11.77
2022-11-20T01:54:34.729Z,12.38
2022-11-20T01:59:43.828Z,10.85
2022-11-20T02:04:48.529Z,11.38
2022-11-20T02:09:58.424Z,11.75
2022-11-20T02:15:02.524Z,11.05
2022-11-20T02:20:07.130Z,12.35
2022-11-20T02:25:12.738Z,12.93
2022-11-20T02:30:16.352Z,12.85
2022-11-20T02:35:43.130Z,11.25
2022-11-20T02:40:52.679Z,11.20
2022-11-20T02:45:58.690Z,10.52
2022-11-20T02:51:02.218Z,11.98
2022-11-20T02:56:08.383Z,11.45
2022-11-20T03:01:11.957Z,10.93
2022-11-20T03:06:15.488Z,12.52
2022-11-20T03:11:20.324Z,10.90
2022-11-20T03:16:25.095Z,10.52
2022-11-20T03:21:29.013Z,11.40
2022-11-20T03:26:34.079Z,11.93
2022-11-20T03:31:41.325Z,11.55
2022-11-20T03:36:45.232Z,10.52
2022-11-20T03:41:50.069Z,10.95
2022-11-20T03:46:53.629Z,11.63
2022-11-20T03:51:57.090Z,11.77
2022-11-20T03:57:01.865Z,10.85
2022-11-20T04:02:05.490Z,10.95
2022-11-20T04:07:09.123Z,10.35
2022-11-20T04:12:14.020Z,11.60
2022-11-20T04:17:17.487Z,10.77
2022-11-20T04:22:20.968Z,10.13
2022-11-20T04:27:25.777Z,10.45
2022-11-20T04:32:29.424Z,11.95
2022-11-20T04:37:32.896Z,12.43
2022-11-20T04:42:37.709Z,11.05
2022-11-20T04:47:41.200Z,10.68
2022-11-20T04:52:44.700Z,10.45
2022-11-20T04:57:52.024Z,10.93
2022-11-20T05:02:55.527Z,10.98
2022-11-20T05:07:59.514Z,11.57
2022-11-20T05:13:04.275Z,10.98
2022-11-20T05:18:08.340Z,11.25
2022-11-20T05:23:11.854Z,12.27
2022-11-20T05:28:16.678Z,11.55
2022-11-20T05:33:20.574Z,11.40
2022-11-20T05:38:24.111Z,11.00
2022-11-20T05:43:28.999Z,10.80
2022-11-20T05:48:34.027Z,10.57
2022-11-20T05:53:38.089Z,10.57
2022-11-20T05:58:42.918Z,11.82
2022-11-20T06:03:48.656Z,11.52
2022-11-20T06:08:52.337Z,10.70
2022-11-20T06:13:57.361Z,11.40
2022-11-20T06:19:00.873Z,11.02
2022-11-20T06:24:04.674Z,11.48
2022-11-20T06:29:09.738Z,9.70
2022-11-20T06:34:13.224Z,11.35
2022-11-20T06:39:16.693Z,11.27
2022-11-20T06:44:21.571Z,10.77
2022-11-20T06:49:25.237Z,11.48
2022-11-20T06:54:28.809Z,11.07
2022-11-20T06:59:33.810Z,10.85
2022-11-20T07:04:37.255Z,11.32
2022-11-20T07:09:40.755Z,11.00
2022-11-20T07:14:45.548Z,11.10
2022-11-20T07:19:48.984Z,12.00
2022-11-20T07:24:52.477Z,12.63
2022-11-20T07:29:57.390Z,12.23
2022-11-20T07:35:00.986Z,12.35
2022-11-20T07:40:05.342Z,13.35
2022-11-20T07:45:11.244Z,12.95
2022-11-20T07:50:15.921Z,12.85
2022-11-20T07:55:19.554Z,12.73
2022-11-20T08:00:24.798Z,13.93
2022-11-20T08:05:28.268Z,15.10
2022-11-20T08:10:31.875Z,18.58
2022-11-20T08:15:37.432Z,16.50
2022-11-20T08:20:41.298Z,17.02
2022-11-20T08:25:44.854Z,15.30
2022-11-20T08:30:51.271Z,16.50
2022-11-20T08:35:55.497Z,16.90
2022-11-20T08:41:17.163Z,15.70
2022-11-20T08:46:22.645Z,15.50
2022-11-20T08:51:26.294Z,14.85
2022-11-20T08:56:30.235Z,15.18
2022-11-20T09:01:35.212Z,15.45
2022-11-20T09:06:38.788Z,18.17
2022-11-20T09:11:42.379Z,16.75
2022-11-20T09:16:48.505Z,17.13
2022-11-20T09:21:54.593Z,18.83
2022-11-20T09:27:06.867Z,18.00
2022-11-20T09:32:11.788Z,18.90
2022-11-20T09:37:15.370Z,17.75
2022-11-20T09:42:34.920Z,20.25
2022-11-20T09:47:55.832Z,22.15
2022-11-20T09:53:13.033Z,22.48
2022-11-20T09:58:23.054Z,20.65
2022-11-20T10:03:40.727Z,16.30
2022-11-20T10:08:49.798Z,22.92
2022-11-20T10:14:03.803Z,20.95
2022-11-20T10:19:25.917Z,22.63
2022-11-20T10:24:50.381Z,22.08
2022-11-20T10:30:03.261Z,24.02
2022-11-20T10:35:20.298Z,22.50
2022-11-20T10:40:31.480Z,23.35
2022-11-20T10:45:47.600Z,22.08
2022-11-20T10:51:14.915Z,24.27
2022-11-20T10:56:23.418Z,23.35
2022-11-20T11:01:28.143Z,22.67
2022-11-20T11:06:38.754Z,22.80
2022-11-20T11:11:42.419Z,23.67
2022-11-20T11:16:52.823Z,24.02
2022-11-20T11:21:58.995Z,23.95
2022-11-20T11:27:05.737Z,25.15
2022-11-20T11:32:13.749Z,25.77
2022-11-20T11:37:22.553Z,24.63
2022-11-20T11:42:26.406Z,23.98
2022-11-20T11:47:34.502Z,24.60
2022-11-20T11:52:47.605Z,23.58
2022-11-20T11:57:56.401Z,22.02
2022-11-20T12:03:10.850Z,22.20
2022-11-20T12:08:23.708Z,23.17
2022-11-20T12:13:41.971Z,22.27
2022-11-20T12:18:46.854Z,22.65
2022-11-20T12:24:17.914Z,24.48
2022-11-20T12:34:54.320Z,24.42
2022-11-20T12:40:04.631Z,26.73
2022-11-20T12:45:35.245Z,23.23
2022-11-20T12:51:13.593Z,31.20
2022-11-20T12:56:25.396Z,29.88
2022-11-20T13:01:43.791Z,29.65
2022-11-20T13:06:47.456Z,31.85
2022-11-20T13:12:03.677Z,30.38
2022-11-20T13:17:13.844Z,29.60
2022-11-20T13:22:26.732Z,27.70
2022-11-20T13:27:32.083Z,27.55
2022-11-20T13:32:35.839Z,28.75
2022-11-20T13:37:40.255Z,29.95
2022-11-20T13:42:54.130Z,28.60
2022-11-20T13:47:59.387Z,28.88
2022-11-20T13:53:16.202Z,30.58
2022-11-20T13:58:37.809Z,33.90
2022-11-20T14:04:05.281Z,36.70
2022-11-20T14:09:06.041Z,34.50
2022-11-20T14:14:17.806Z,33.60
2022-11-20T14:19:47.684Z,34.90
2022-11-20T14:25:02.982Z,34.20
2022-11-20T14:30:15.149Z,33.83
2022-11-20T14:35:23.668Z,32.80
2022-11-20T14:40:30.529Z,33.67
2022-11-20T14:45:35.500Z,39.50
2022-11-20T14:50:40.603Z,37.17
2022-11-20T14:55:44.095Z,34.85
2022-11-20T15:00:56.381Z,36.97
2022-11-20T15:05:59.949Z,32.45
2022-11-20T15:11:04.234Z,36.50
2022-11-20T15:16:19.801Z,36.60
2022-11-20T15:21:23.804Z,36.95
2022-11-20T15:26:29.584Z,34.47
2022-11-20T15:31:34.533Z,36.22
2022-11-20T15:36:38.150Z,37.13
2022-11-20T15:41:41.794Z,35.58
2022-11-20T15:46:47.624Z,37.72
2022-11-20T15:51:53.678Z,36.22
2022-11-20T15:56:57.124Z,35.42
2022-11-20T16:02:02.145Z,35.20
2022-11-20T16:07:05.902Z,40.53
2022-11-20T16:12:32.332Z,37.60
2022-11-20T16:17:44.491Z,42.78
2022-11-20T16:22:48.304Z,38.40
2022-11-20T16:27:51.894Z,41.53
2022-11-20T16:32:56.895Z,42.28
2022-11-20T16:38:00.623Z,40.50
2022-11-20T16:43:11.109Z,41.50
2022-11-20T16:48:18.066Z,37.75
2022-11-20T16:53:23.474Z,39.38
2022-11-20T16:58:27.150Z,39.90
2022-11-20T17:03:32.007Z,39.65
2022-11-20T17:08:35.699Z,38.13
2022-11-20T17:13:40.212Z,36.47
2022-11-20T17:18:45.435Z,38.70
2022-11-20T17:23:49.312Z,36.53
2022-11-20T17:28:55.798Z,35.95
2022-11-20T17:34:01.699Z,38.20
2022-11-20T17:39:05.597Z,37.30
2022-11-20T17:44:11.732Z,38.78
2022-11-20T17:49:20.039Z,37.08
2022-11-20T17:59:29.645Z,36.17
2022-11-20T18:04:34.618Z,35.17
2022-11-20T18:09:38.467Z,36.60
2022-11-20T18:14:43.721Z,36.70
2022-11-20T18:20:14.091Z,36.83
2022-11-20T18:25:14.577Z,34.50
2022-11-20T18:30:18.090Z,37.28
2022-11-20T18:35:23.001Z,31.63
2022-11-20T18:40:26.665Z,34.65
2022-11-20T18:45:30.481Z,33.67
2022-11-20T18:50:35.450Z,32.53
2022-11-20T18:55:39.064Z,34.58
2022-11-20T19:00:42.651Z,35.80
2022-11-20T19:05:47.545Z,34.35
2022-11-20T19:10:51.559Z,32.67
2022-11-20T19:15:55.083Z,32.95
2022-11-20T19:21:08.679Z,29.75
2022-11-20T19:26:12.147Z,31.98
2022-11-20T19:31:21.626Z,32.67
2022-11-20T19:36:30.969Z,31.73
2022-11-20T19:41:35.702Z,31.75
2022-11-20T19:46:40.227Z,31.63
2022-11-20T19:51:48.144Z,31.65
2022-11-20T19:56:51.634Z,33.20
2022-11-20T20:01:55.505Z,33.28
2022-11-20T20:07:00.968Z,30.42
2022-11-20T20:12:04.918Z,31.48
2022-11-20T20:17:08.573Z,30.67
2022-11-20T20:22:13.476Z,30.48
2022-11-20T20:27:16.960Z,31.75
2022-11-20T20:32:20.583Z,30.45
2022-11-20T20:37:25.534Z,30.38
2022-11-20T20:42:31.616Z,31.33
2022-11-20T20:47:36.517Z,36.20
2022-11-20T20:52:41.850Z,30.52
2022-11-20T20:57:45.538Z,31.38
2022-11-20T21:02:49.057Z,31.83
2022-11-20T21:08:11.411Z,30.98
2022-11-20T21:13:15.260Z,31.75
2022-11-20T21:18:20.397Z,32.00
2022-11-20T21:23:25.471Z,28.67
2022-11-20T21:28:29.135Z,32.83
2022-11-20T21:33:38.090Z,33.38
2022-11-20T21:38:43.541Z,33.92
2022-11-20T21:44:09.199Z,34.00
2022-11-20T21:49:11.332Z,33.42
2022-11-20T21:54:17.615Z,36.70
2022-11-20T21:59:22.236Z,32.13
2022-11-20T22:04:26.216Z,34.17
2022-11-20T22:09:31.247Z,34.92
2022-11-20T22:14:34.898Z,35.70
2022-11-20T22:19:38.447Z,34.28
2022-11-20T22:24:43.449Z,36.13
2022-11-20T22:29:47.046Z,33.65
2022-11-20T22:34:50.572Z,36.90
2022-11-20T22:39:55.320Z,35.05
2022-11-20T22:44:58.822Z,36.38
2022-11-20T22:50:02.218Z,36.97
2022-11-20T22:55:12.245Z,39.90
2022-11-20T23:00:19.948Z,38.10
2022-11-20T23:05:23.397Z,38.28
2022-11-20T23:10:28.224Z,38.75
2022-11-20T23:15:31.696Z,36.38
2022-11-20T23:20:36.719Z,32.28
2022-11-20T23:25:41.597Z,34.70
2022-11-20T23:30:47.680Z,34.92
2022-11-20T23:35:51.452Z,30.98
2022-11-20T23:40:56.296Z,34.45
2022-11-20T23:46:01.187Z,31.58
2022-11-20T23:51:06.288Z,30.13
2022-11-20T23:56:14.344Z,29.98
